Time;durP1;ratioP1;P1;durP2;ratioP2;P2;SDS_P1;SDS_P2;PMS_P1;PMS_P2;Temp;Humidity;BMP_temperature;BMP_pressure;BME280_temperature;BME280_humidity;BME280_pressure;Samples;Min_cycle;Max_cycle;Signal;HPM_P1;HPM_P2
2021/07/28 00:00:20;;;;;;;2.60;2.40;;;16.80;99.90;;;;;;2091018;28;20194;-67
2021/07/28 00:01:22;;;;;;;1.83;1.73;;;16.80;99.90;;;;;;2098327;28;20261;-66
2021/07/28 00:02:23;;;;;;;2.97;1.57;;;16.80;99.90;;;;;;2096218;28;20199;-68
2021/07/28 00:03:24;;;;;;;1.20;1.10;;;16.80;99.90;;;;;;2096411;28;20874;-68
2021/07/28 00:04:24;;;;;;;1.60;1.50;;;16.80;99.90;;;;;;2100964;28;20252;-67
2021/07/28 00:05:25;;;;;;;3.07;2.27;;;16.80;99.90;;;;;;2097468;28;20184;-67
2021/07/28 00:06:26;;;;;;;3.97;2.67;;;16.80;99.90;;;;;;2096749;28;20216;-67
2021/07/28 00:07:26;;;;;;;2.47;1.93;;;16.80;99.90;;;;;;2089151;28;20192;-70
2021/07/28 00:08:28;;;;;;;1.77;1.67;;;16.70;99.90;;;;;;2100164;28;20647;-69
2021/07/28 00:09:28;;;;;;;1.80;1.60;;;16.70;99.90;;;;;;2097209;28;20187;-68
2021/07/28 00:10:29;;;;;;;1.70;1.60;;;16.70;99.90;;;;;;2096152;28;20457;-69
2021/07/28 00:11:30;;;;;;;1.90;1.73;;;16.70;99.90;;;;;;2096044;28;20265;-69
2021/07/28 00:12:31;;;;;;;1.93;1.67;;;16.70;99.90;;;;;;2101808;28;20712;-69
2021/07/28 00:13:31;;;;;;;3.33;2.93;;;16.80;99.90;;;;;;2096927;28;20195;-69
2021/07/28 00:14:32;;;;;;;4.77;2.40;;;16.80;99.90;;;;;;2097233;28;20180;-69
2021/07/28 00:15:33;;;;;;;3.23;2.03;;;16.70;99.90;;;;;;2096926;28;20261;-68
2021/07/28 00:16:33;;;;;;;2.93;2.20;;;16.70;99.90;;;;;;2102135;28;20180;-69
2021/07/28 00:17:37;;;;;;;2.53;2.33;;;16.70;99.90;;;;;;2096577;28;20646;-69
2021/07/28 00:18:51;;;;;;;3.73;2.57;;;16.70;99.90;;;;;;2088079;28;20180;-68
2021/07/28 00:19:57;;;;;;;2.43;1.53;;;16.70;99.90;;;;;;2083536;28;20458;-70
2021/07/28 00:23:37;;;;;;;4.10;2.00;;;16.80;99.90;;;;;;2089107;28;20396;-68
2021/07/28 00:24:38;;;;;;;2.27;2.07;;;16.80;99.90;;;;;;2102987;28;20417;-74
2021/07/28 00:25:39;;;;;;;2.47;2.27;;;16.80;99.90;;;;;;2105476;28;20176;-71
2021/07/28 00:26:40;;;;;;;2.50;2.30;;;16.90;99.90;;;;;;2104640;28;20203;-74
2021/07/28 00:27:40;;;;;;;2.13;1.93;;;16.90;99.90;;;;;;2096151;28;20793;-73
2021/07/28 00:28:41;;;;;;;2.47;1.67;;;16.90;99.90;;;;;;2096357;28;20184;-73
2021/07/28 00:29:42;;;;;;;2.60;2.27;;;16.90;99.90;;;;;;2105122;28;20171;-72
2021/07/28 00:30:43;;;;;;;4.47;1.97;;;17.00;99.90;;;;;;2105763;28;20234;-72
2021/07/28 00:31:44;;;;;;;2.50;2.30;;;17.00;99.90;;;;;;2105194;28;20182;-71
2021/07/28 00:32:45;;;;;;;2.23;2.03;;;17.00;99.90;;;;;;2104833;28;20417;-71
2021/07/28 00:33:45;;;;;;;3.27;2.83;;;17.00;99.90;;;;;;2105124;28;20167;-71
2021/07/28 00:34:46;;;;;;;1.93;1.43;;;17.00;99.90;;;;;;2096424;28;20484;-72
2021/07/28 00:35:48;;;;;;;8.33;2.30;;;16.90;99.90;;;;;;2096805;28;20175;-72
2021/07/28 00:36:49;;;;;;;2.77;2.53;;;17.00;99.90;;;;;;2106742;28;20638;-72
2021/07/28 00:37:50;;;;;;;2.43;2.23;;;17.00;99.90;;;;;;2115073;28;20408;-72
2021/07/28 00:38:51;;;;;;;3.13;2.17;;;17.00;99.90;;;;;;2114775;28;20412;-71
2021/07/28 00:39:52;;;;;;;3.77;2.10;;;17.00;99.90;;;;;;2093439;28;20425;-72
2021/07/28 00:40:53;;;;;;;2.77;2.57;;;17.00;99.90;;;;;;2081530;28;20215;-72
2021/07/28 00:41:54;;;;;;;2.10;1.47;;;17.00;99.90;;;;;;2081764;28;20446;-72
2021/07/28 00:43:09;;;;;;;1.33;1.23;;;17.00;99.90;;;;;;2084773;28;20173;-71
2021/07/28 00:44:11;;;;;;;1.33;1.23;;;16.80;99.90;;;;;;2085351;28;20681;-72
2021/07/28 00:45:12;;;;;;;2.10;1.60;;;16.80;99.90;;;;;;2077901;28;20444;-72
2021/07/28 00:46:13;;;;;;;3.17;2.17;;;16.70;99.90;;;;;;2084201;28;20524;-72
2021/07/28 00:47:14;;;;;;;1.97;1.70;;;16.70;99.90;;;;;;2098703;28;20917;-72
2021/07/28 00:48:15;;;;;;;2.40;1.73;;;16.70;99.90;;;;;;2097153;28;20191;-72
2021/07/28 00:49:16;;;;;;;5.70;2.63;;;16.70;99.90;;;;;;2089505;28;20573;-72
2021/07/28 00:50:17;;;;;;;3.30;1.93;;;16.70;99.90;;;;;;2098235;28;20704;-72
2021/07/28 00:51:17;;;;;;;2.50;2.23;;;16.70;99.90;;;;;;2093709;28;20184;-71
2021/07/28 00:52:18;;;;;;;1.53;1.43;;;16.70;99.90;;;;;;2090454;28;20255;-72
2021/07/28 00:53:19;;;;;;;1.63;1.53;;;16.80;99.90;;;;;;2092960;28;20770;-72
2021/07/28 00:54:20;;;;;;;1.57;1.47;;;16.80;99.90;;;;;;2097738;28;20661;-72
2021/07/28 00:55:20;;;;;;;1.30;1.17;;;16.80;99.90;;;;;;2090480;28;20184;-72
2021/07/28 00:56:22;;;;;;;1.37;1.27;;;16.80;99.90;;;;;;2081716;28;20184;-71
2021/07/28 00:57:22;;;;;;;1.50;1.40;;;16.80;99.90;;;;;;2088762;28;20188;-71
2021/07/28 00:58:23;;;;;;;1.70;1.60;;;16.70;99.90;;;;;;2089790;28;20438;-72
2021/07/28 00:59:25;;;;;;;1.20;1.20;;;16.70;99.90;;;;;;2090749;28;20192;-72
2021/07/28 01:00:27;;;;;;;1.77;1.27;;;16.50;99.90;;;;;;2089636;28;20180;-70
2021/07/28 01:01:27;;;;;;;2.80;1.33;;;16.50;99.90;;;;;;2088996;28;20422;-70
2021/07/28 01:02:28;;;;;;;1.60;1.50;;;16.50;99.90;;;;;;2089610;28;20431;-71
2021/07/28 01:03:29;;;;;;;1.63;1.53;;;16.40;99.90;;;;;;2089068;28;20184;-71
2021/07/28 01:04:30;;;;;;;1.37;1.27;;;16.40;99.90;;;;;;2088984;28;20271;-71
2021/07/28 01:05:30;;;;;;;1.37;1.27;;;16.40;99.90;;;;;;2081251;28;20204;-72
2021/07/28 01:06:31;;;;;;;2.30;1.43;;;16.40;99.90;;;;;;2089719;28;20176;-71
2021/07/28 01:07:32;;;;;;;1.83;1.17;;;16.30;99.90;;;;;;2090057;28;20184;-71
2021/07/28 01:08:33;;;;;;;1.93;1.73;;;16.40;99.90;;;;;;2089551;28;20180;-71
2021/07/28 01:09:34;;;;;;;1.27;1.17;;;16.50;99.90;;;;;;2089551;28;20415;-71
2021/07/28 01:10:35;;;;;;;1.20;1.10;;;16.50;99.90;;;;;;2089696;28;20504;-71
2021/07/28 01:11:36;;;;;;;1.40;1.30;;;16.50;99.90;;;;;;2081360;28;20240;-71
2021/07/28 01:12:42;;;;;;;1.30;1.23;;;16.60;99.90;;;;;;2081377;28;20481;-71
2021/07/28 01:13:43;;;;;;;2.77;2.23;;;16.60;99.90;;;;;;2090209;28;20403;-71
2021/07/28 01:14:44;;;;;;;1.90;1.37;;;16.60;99.90;;;;;;2090552;28;20443;-71
2021/07/28 01:15:47;;;;;;;1.67;1.40;;;16.60;99.90;;;;;;2089664;28;20180;-70
2021/07/28 01:16:48;;;;;;;1.63;1.53;;;16.60;99.90;;;;;;2089717;28;20422;-71
2021/07/28 01:17:50;;;;;;;1.43;1.33;;;16.60;99.90;;;;;;2089337;28;20915;-71
2021/07/28 01:18:52;;;;;;;1.10;1.10;;;16.70;99.90;;;;;;2089525;28;20172;-71
2021/07/28 01:20:00;;;;;;;2.00;1.80;;;16.70;99.90;;;;;;2089536;28;20506;-71
2021/07/28 01:21:02;;;;;;;1.47;1.37;;;16.70;99.90;;;;;;2089782;28;20496;-71
2021/07/28 01:22:03;;;;;;;1.20;1.20;;;16.60;99.90;;;;;;2089647;28;21012;-71
2021/07/28 01:23:10;;;;;;;1.67;1.57;;;16.60;99.90;;;;;;2081524;28;20428;-71
2021/07/28 01:24:14;;;;;;;1.73;1.60;;;16.60;99.90;;;;;;2089496;28;20418;-71
2021/07/28 01:25:15;;;;;;;1.67;1.57;;;16.50;99.90;;;;;;2081234;28;20444;-71
2021/07/28 01:26:16;;;;;;;2.40;1.87;;;16.40;99.90;;;;;;2072999;28;20431;-70
2021/07/28 01:27:18;;;;;;;3.10;1.57;;;16.30;99.90;;;;;;2081085;28;20903;-71
2021/07/28 01:28:22;;;;;;;2.50;1.57;;;16.30;99.90;;;;;;2081130;28;20202;-71
2021/07/28 01:29:23;;;;;;;1.30;1.20;;;16.20;99.90;;;;;;2081604;28;20459;-71
2021/07/28 01:30:24;;;;;;;1.90;1.80;;;16.20;99.90;;;;;;2089431;28;20419;-71
2021/07/28 01:31:25;;;;;;;5.80;1.50;;;16.20;99.90;;;;;;2089620;28;20461;-70
2021/07/28 01:32:26;;;;;;;1.40;1.23;;;16.20;99.90;;;;;;2081389;28;20264;-71
2021/07/28 01:33:30;;;;;;;2.60;1.20;;;16.20;99.90;;;;;;2089707;28;20180;-70
2021/07/28 01:34:32;;;;;;;1.10;1.03;;;16.20;99.90;;;;;;2089513;28;20471;-71
2021/07/28 01:35:37;;;;;;;1.53;1.43;;;16.20;99.90;;;;;;2097670;28;20480;-70
2021/07/28 01:36:39;;;;;;;1.00;0.97;;;16.20;99.90;;;;;;2089524;28;20426;-71
2021/07/28 01:37:45;;;;;;;1.70;1.47;;;16.20;99.90;;;;;;2089403;28;20414;-71
2021/07/28 01:38:46;;;;;;;1.90;1.80;;;16.20;99.90;;;;;;2089472;28;20408;-71
2021/07/28 01:39:47;;;;;;;1.73;1.63;;;16.20;99.90;;;;;;2081166;28;20419;-71
2021/07/28 01:40:48;;;;;;;1.47;1.37;;;16.20;99.90;;;;;;2089508;28;20438;-71
2021/07/28 01:42:01;;;;;;;5.43;2.63;;;16.20;99.90;;;;;;2090010;28;20279;-71
2021/07/28 01:43:13;;;;;;;0.90;0.90;;;16.10;99.90;;;;;;2089329;28;20216;-71
2021/07/28 01:44:14;;;;;;;2.10;1.90;;;16.10;99.90;;;;;;2089712;28;20445;-71
2021/07/28 01:45:17;;;;;;;1.63;1.53;;;16.10;99.90;;;;;;2090213;28;20430;-70
2021/07/28 01:46:18;;;;;;;1.63;1.52;;;16.10;99.90;;;;;;2089632;28;20649;-71
2021/07/28 01:47:19;;;;;;;4.20;2.50;;;16.10;99.90;;;;;;2089627;28;20175;-70
2021/07/28 01:48:20;;;;;;;1.63;1.37;;;16.00;99.90;;;;;;2090025;28;20788;-71
2021/07/28 01:49:21;;;;;;;1.70;1.57;;;16.00;99.90;;;;;;2089887;28;20197;-72
2021/07/28 01:50:21;;;;;;;1.13;1.10;;;15.90;99.90;;;;;;2081141;28;20448;-71
2021/07/28 01:51:22;;;;;;;1.73;1.37;;;15.90;99.90;;;;;;2073108;28;20221;-71
2021/07/28 01:52:22;;;;;;;2.73;1.90;;;15.90;99.90;;;;;;2089691;28;20641;-71
2021/07/28 01:53:25;;;;;;;1.33;1.03;;;15.80;99.90;;;;;;2090068;28;20184;-71
2021/07/28 01:54:26;;;;;;;2.03;1.70;;;15.80;99.90;;;;;;2089550;28;20172;-71
2021/07/28 01:55:27;;;;;;;2.40;2.20;;;15.70;99.90;;;;;;2089326;28;20542;-71
2021/07/28 01:56:28;;;;;;;1.80;1.43;;;15.70;99.90;;;;;;2089395;28;20191;-71
2021/07/28 01:57:29;;;;;;;1.57;1.30;;;15.70;99.90;;;;;;2089164;28;20181;-71
2021/07/28 01:58:30;;;;;;;1.20;1.13;;;15.60;99.90;;;;;;2090105;28;20509;-71
2021/07/28 01:59:38;;;;;;;2.22;2.10;;;15.60;99.90;;;;;;2089876;28;20585;-71
2021/07/28 02:00:41;;;;;;;1.60;1.08;;;15.60;99.90;;;;;;2089308;28;20215;-72
2021/07/28 02:01:42;;;;;;;1.98;1.77;;;15.60;99.90;;;;;;2081224;28;20173;-71
2021/07/28 02:02:42;;;;;;;1.17;1.13;;;15.60;99.90;;;;;;2081158;28;20181;-71
2021/07/28 02:03:43;;;;;;;2.37;1.40;;;15.50;99.90;;;;;;2089412;28;20234;-70
2021/07/28 02:04:44;;;;;;;1.50;1.40;;;15.50;99.90;;;;;;2088954;28;20226;-71
2021/07/28 02:05:45;;;;;;;1.50;1.40;;;15.50;99.90;;;;;;2096028;28;20218;-70
2021/07/28 02:06:45;;;;;;;2.40;1.50;;;15.50;99.90;;;;;;2097329;28;20198;-70
2021/07/28 02:07:46;;;;;;;2.43;1.60;;;15.50;99.90;;;;;;2097415;28;20213;-70
2021/07/28 02:08:47;;;;;;;2.30;1.53;;;15.50;99.90;;;;;;2089360;28;20184;-73
2021/07/28 02:09:48;;;;;;;2.27;2.07;;;15.50;99.90;;;;;;2097431;28;20212;-70
2021/07/28 02:10:50;;;;;;;1.70;1.60;;;15.60;99.90;;;;;;2080959;28;20454;-70
2021/07/28 02:11:51;;;;;;;3.50;1.52;;;15.60;99.90;;;;;;2089392;28;20871;-70
2021/07/28 02:12:51;;;;;;;1.50;1.40;;;15.50;99.90;;;;;;2097461;28;20183;-70
2021/07/28 02:13:52;;;;;;;1.83;1.20;;;15.50;99.90;;;;;;2089315;28;20626;-71
2021/07/28 02:14:53;;;;;;;5.40;2.10;;;15.40;99.90;;;;;;2097549;28;20256;-70
2021/07/28 02:15:54;;;;;;;13.33;1.37;;;15.40;99.90;;;;;;2098096;28;20198;-69
2021/07/28 02:16:54;;;;;;;1.50;1.40;;;15.40;99.90;;;;;;2097838;28;20171;-70
2021/07/28 02:17:56;;;;;;;2.77;1.47;;;15.40;99.90;;;;;;2097258;28;20172;-70
2021/07/28 02:18:56;;;;;;;1.77;1.03;;;15.40;99.90;;;;;;2089329;28;20251;-70
2021/07/28 02:19:57;;;;;;;1.53;1.43;;;15.40;99.90;;;;;;2097357;28;20472;-70
2021/07/28 02:20:58;;;;;;;1.60;1.50;;;15.40;99.90;;;;;;2098037;28;20199;-69
2021/07/28 02:21:59;;;;;;;1.25;1.15;;;15.30;99.90;;;;;;2097447;28;20706;-70
2021/07/28 02:23:00;;;;;;;1.00;1.00;;;15.30;99.90;;;;;;2097264;28;20179;-70
2021/07/28 02:24:01;;;;;;;1.33;1.23;;;15.40;99.90;;;;;;2097234;28;20299;-70
2021/07/28 02:25:01;;;;;;;1.07;1.00;;;15.30;99.90;;;;;;2097397;28;20647;-69
2021/07/28 02:26:02;;;;;;;1.50;1.40;;;15.30;99.90;;;;;;2097848;28;20175;-70
2021/07/28 02:27:03;;;;;;;5.33;1.60;;;15.30;99.90;;;;;;2097153;28;20275;-70
2021/07/28 02:28:04;;;;;;;1.33;1.17;;;15.40;99.90;;;;;;2088928;28;20716;-70
2021/07/28 02:29:04;;;;;;;1.80;1.70;;;15.40;99.90;;;;;;2088997;28;20566;-71
2021/07/28 02:30:07;;;;;;;1.63;1.53;;;15.40;99.90;;;;;;2097415;28;20176;-70
2021/07/28 02:31:08;;;;;;;0.95;0.95;;;15.40;99.90;;;;;;2098035;28;20200;-70
2021/07/28 02:32:08;;;;;;;3.27;1.20;;;15.40;99.90;;;;;;2097851;28;20266;-70
2021/07/28 02:33:09;;;;;;;1.80;1.50;;;15.40;99.90;;;;;;2097290;28;20274;-70
2021/07/28 02:34:10;;;;;;;1.30;1.20;;;15.40;99.90;;;;;;2088887;28;20181;-70
2021/07/28 02:35:14;;;;;;;2.20;1.70;;;15.40;99.90;;;;;;2089123;28;21031;-71
2021/07/28 02:36:15;;;;;;;1.70;1.03;;;15.50;99.90;;;;;;2089444;28;20255;-70
2021/07/28 02:37:15;;;;;;;1.60;1.50;;;15.40;99.90;;;;;;2097318;28;20993;-70
2021/07/28 02:38:16;;;;;;;1.67;1.57;;;15.50;99.90;;;;;;2097793;28;20179;-71
2021/07/28 02:39:17;;;;;;;2.63;1.60;;;15.50;99.90;;;;;;2097864;28;20175;-70
2021/07/28 02:40:20;;;;;;;1.13;0.87;;;15.40;99.90;;;;;;2097273;28;20274;-70
2021/07/28 02:41:20;;;;;;;1.63;0.70;;;15.40;99.90;;;;;;2091795;28;20228;-71
2021/07/28 02:42:21;;;;;;;1.27;1.10;;;15.40;99.90;;;;;;2097302;28;20175;-71
2021/07/28 02:43:22;;;;;;;2.13;1.17;;;15.40;99.90;;;;;;2097911;28;20564;-70
2021/07/28 02:44:23;;;;;;;1.17;1.07;;;15.40;99.90;;;;;;2097837;28;20263;-70
2021/07/28 02:45:23;;;;;;;1.90;1.33;;;15.40;99.90;;;;;;2097803;28;20214;-70
2021/07/28 02:46:24;;;;;;;1.60;1.20;;;15.40;99.90;;;;;;2097043;28;20211;-70
2021/07/28 02:47:25;;;;;;;1.83;1.10;;;15.30;99.90;;;;;;2097107;28;20176;-70
2021/07/28 02:48:25;;;;;;;1.23;0.87;;;15.40;99.90;;;;;;2097217;28;20179;-70
2021/07/28 02:49:26;;;;;;;1.17;1.07;;;15.40;99.90;;;;;;2096938;28;20203;-70
2021/07/28 02:50:27;;;;;;;1.00;1.00;;;15.40;99.90;;;;;;2097897;28;20168;-71
2021/07/28 02:51:28;;;;;;;1.30;1.20;;;15.40;99.90;;;;;;2097778;28;20650;-71
2021/07/28 02:52:28;;;;;;;1.80;1.63;;;15.40;99.90;;;;;;2097849;28;20275;-71
2021/07/28 02:53:29;;;;;;;1.40;1.13;;;15.50;99.90;;;;;;2097783;28;20261;-71
2021/07/28 02:54:30;;;;;;;1.23;1.13;;;15.50;99.90;;;;;;2097704;28;20176;-71
2021/07/28 02:55:31;;;;;;;1.97;0.80;;;15.50;99.90;;;;;;2097129;28;20226;-71
2021/07/28 02:56:31;;;;;;;0.80;0.80;;;15.50;99.90;;;;;;2088908;28;20419;-70
2021/07/28 02:57:34;;;;;;;3.57;1.47;;;15.60;99.90;;;;;;2097013;28;20175;-72
2021/07/28 02:58:35;;;;;;;1.52;1.02;;;15.60;99.90;;;;;;2088615;28;20184;-71
2021/07/28 02:59:36;;;;;;;2.43;1.63;;;15.70;99.90;;;;;;2088457;28;20183;-71
2021/07/28 03:00:36;;;;;;;1.50;1.30;;;15.60;99.90;;;;;;2097110;28;20237;-71
2021/07/28 03:01:37;;;;;;;2.27;1.20;;;15.60;99.90;;;;;;2097826;28;20273;-71
2021/07/28 03:02:38;;;;;;;1.83;1.27;;;15.60;99.90;;;;;;2097694;28;20167;-71
2021/07/28 03:03:38;;;;;;;0.93;0.90;;;15.60;99.90;;;;;;2097158;28;20306;-71
2021/07/28 03:04:39;;;;;;;2.20;1.20;;;15.60;99.90;;;;;;2097140;28;20168;-71
2021/07/28 03:05:42;;;;;;;1.47;1.23;;;15.70;99.90;;;;;;2096791;28;20654;-71
2021/07/28 03:06:43;;;;;;;0.95;0.77;;;15.70;99.90;;;;;;2089219;28;20173;-71
2021/07/28 03:07:43;;;;;;;1.40;1.10;;;15.70;99.90;;;;;;2096984;28;20171;-71
2021/07/28 03:08:44;;;;;;;1.70;1.20;;;15.70;99.90;;;;;;2097799;28;20222;-71
2021/07/28 03:09:45;;;;;;;1.00;1.00;;;15.70;99.90;;;;;;2096794;28;20180;-71
2021/07/28 03:10:48;;;;;;;2.13;1.57;;;15.80;99.90;;;;;;2088583;28;20227;-71
2021/07/28 03:11:49;;;;;;;1.17;1.08;;;15.70;99.90;;;;;;2089034;28;20186;-71
2021/07/28 03:12:50;;;;;;;1.53;1.27;;;15.70;99.90;;;;;;2096952;28;20658;-70
2021/07/28 03:13:50;;;;;;;1.03;1.03;;;15.60;99.90;;;;;;2097518;28;20240;-71
2021/07/28 03:14:53;;;;;;;1.13;0.80;;;15.60;99.90;;;;;;2096911;28;20263;-71
2021/07/28 03:15:54;;;;;;;1.80;1.47;;;15.60;99.90;;;;;;2088825;28;20267;-71
2021/07/28 03:16:55;;;;;;;1.63;1.53;;;15.60;99.90;;;;;;2096788;28;20418;-71
2021/07/28 03:17:55;;;;;;;2.23;1.10;;;15.70;99.90;;;;;;2097559;28;20179;-71
2021/07/28 03:18:56;;;;;;;1.90;1.40;;;15.70;99.90;;;;;;2096978;28;20183;-71
2021/07/28 03:19:57;;;;;;;1.50;1.20;;;15.70;99.90;;;;;;2096966;28;20178;-71
2021/07/28 03:20:57;;;;;;;1.33;1.23;;;15.60;99.90;;;;;;2097524;28;20195;-70
2021/07/28 03:21:58;;;;;;;0.80;0.80;;;15.60;99.90;;;;;;2096882;28;20266;-71
2021/07/28 03:22:59;;;;;;;0.83;0.83;;;15.60;99.90;;;;;;2088777;28;20183;-71
2021/07/28 03:24:00;;;;;;;1.53;1.20;;;15.60;99.90;;;;;;2097025;28;20579;-70
2021/07/28 03:25:02;;;;;;;1.73;1.63;;;15.60;99.90;;;;;;2096996;28;20171;-71
2021/07/28 03:26:03;;;;;;;2.00;1.77;;;15.50;99.90;;;;;;2096912;28;20403;-71
2021/07/28 03:27:04;;;;;;;1.27;1.02;;;15.50;99.90;;;;;;2097422;28;20503;-70
2021/07/28 03:28:05;;;;;;;5.85;1.73;;;15.60;99.90;;;;;;2096819;28;20175;-71
2021/07/28 03:29:06;;;;;;;1.53;1.27;;;15.60;99.90;;;;;;2096978;28;20204;-70
2021/07/28 03:30:07;;;;;;;2.30;1.53;;;15.60;99.90;;;;;;2097596;28;20175;-71
2021/07/28 03:31:08;;;;;;;4.17;1.00;;;15.60;99.90;;;;;;2097651;28;20199;-70
2021/07/28 03:32:09;;;;;;;1.57;1.47;;;15.60;99.90;;;;;;2097795;28;20422;-71
2021/07/28 03:33:10;;;;;;;1.07;1.07;;;15.60;99.90;;;;;;2098773;28;20446;-71
2021/07/28 03:34:11;;;;;;;1.07;0.87;;;15.60;99.90;;;;;;2088992;28;20184;-71
2021/07/28 03:35:12;;;;;;;1.10;0.93;;;15.60;99.90;;;;;;2080772;28;20419;-72
2021/07/28 03:36:12;;;;;;;1.53;1.27;;;15.60;99.90;;;;;;2088967;28;20579;-71
2021/07/28 03:37:13;;;;;;;0.93;0.93;;;15.60;99.90;;;;;;2096900;28;20262;-71
2021/07/28 03:38:14;;;;;;;0.97;0.97;;;15.60;99.90;;;;;;2097775;28;20168;-71
2021/07/28 03:39:15;;;;;;;0.73;0.73;;;15.70;99.90;;;;;;2097649;28;20180;-71
2021/07/28 03:40:16;;;;;;;0.93;0.93;;;15.60;99.90;;;;;;2097814;28;20958;-71
2021/07/28 03:41:16;;;;;;;1.10;0.97;;;15.60;99.90;;;;;;2097510;28;20200;-70
2021/07/28 03:42:17;;;;;;;0.60;0.60;;;15.50;99.90;;;;;;2097684;28;20623;-71
2021/07/28 03:43:18;;;;;;;1.23;1.13;;;15.60;99.90;;;;;;2096936;28;20233;-71
2021/07/28 03:44:18;;;;;;;1.13;0.93;;;15.50;99.90;;;;;;2089014;28;20259;-71
2021/07/28 03:45:20;;;;;;;1.33;1.23;;;15.50;99.90;;;;;;2097069;28;20184;-74
2021/07/28 03:46:20;;;;;;;0.93;0.90;;;15.50;99.90;;;;;;2080504;28;20588;-70
2021/07/28 03:47:21;;;;;;;1.30;1.20;;;15.40;99.90;;;;;;2088445;28;20188;-71
2021/07/28 03:48:22;;;;;;;1.43;1.33;;;15.40;99.90;;;;;;2105472;28;20179;-71
2021/07/28 03:49:22;;;;;;;2.40;1.03;;;15.40;99.90;;;;;;2097031;28;20210;-70
2021/07/28 03:50:23;;;;;;;1.37;1.27;;;15.40;99.90;;;;;;2097128;28;20179;-71
2021/07/28 03:51:24;;;;;;;1.53;1.00;;;15.40;99.90;;;;;;2097213;28;20653;-71
2021/07/28 03:52:24;;;;;;;1.53;1.43;;;15.40;99.90;;;;;;2097221;28;20175;-70
2021/07/28 03:53:26;;;;;;;1.33;1.23;;;15.40;99.90;;;;;;2097587;28;20207;-70
2021/07/28 03:54:26;;;;;;;5.50;2.25;;;15.40;99.90;;;;;;2097033;28;20183;-70
2021/07/28 03:55:27;;;;;;;1.23;1.13;;;15.40;99.90;;;;;;2097019;28;20669;-71
2021/07/28 03:56:28;;;;;;;0.93;0.93;;;15.40;99.90;;;;;;2097538;28;20276;-70
2021/07/28 03:57:29;;;;;;;0.90;0.90;;;15.40;99.90;;;;;;2097273;28;20414;-71
2021/07/28 03:58:29;;;;;;;1.73;1.30;;;15.40;99.90;;;;;;2097629;28;20168;-71
2021/07/28 03:59:30;;;;;;;0.83;0.83;;;15.40;99.90;;;;;;2097375;28;20179;-71
2021/07/28 04:00:31;;;;;;;1.17;1.07;;;15.40;99.90;;;;;;2097586;28;20251;-72
2021/07/28 04:01:32;;;;;;;2.00;1.20;;;15.40;99.90;;;;;;2097843;28;20187;-73
2021/07/28 04:02:32;;;;;;;1.17;1.13;;;15.40;99.90;;;;;;2096980;28;20186;-69
2021/07/28 04:03:33;;;;;;;1.03;1.03;;;15.40;99.90;;;;;;2096926;28;20232;-72
2021/07/28 04:04:34;;;;;;;1.60;1.17;;;15.40;99.90;;;;;;2096840;28;20175;-73
2021/07/28 04:05:34;;;;;;;1.00;0.93;;;15.30;99.90;;;;;;2088614;28;20596;-71
2021/07/28 04:06:35;;;;;;;0.90;0.90;;;15.30;99.90;;;;;;2097026;28;20217;-72
2021/07/28 04:07:36;;;;;;;0.83;0.83;;;15.20;99.90;;;;;;2097517;28;20180;-72
2021/07/28 04:08:37;;;;;;;1.70;1.60;;;15.20;99.90;;;;;;2097396;28;20180;-72
2021/07/28 04:09:38;;;;;;;4.70;1.03;;;15.10;99.90;;;;;;2097182;28;20178;-72
2021/07/28 04:10:38;;;;;;;2.77;1.47;;;15.10;99.90;;;;;;2097017;28;20207;-72
2021/07/28 04:11:39;;;;;;;0.80;0.80;;;15.10;99.90;;;;;;2098545;28;20765;-71
2021/07/28 04:12:40;;;;;;;3.40;1.37;;;15.00;99.90;;;;;;2098820;28;20183;-72
2021/07/28 04:13:40;;;;;;;1.17;1.13;;;15.00;99.90;;;;;;2098259;28;20226;-71
2021/07/28 04:14:41;;;;;;;1.37;1.27;;;15.00;99.90;;;;;;2089816;28;20238;-71
2021/07/28 04:15:43;;;;;;;0.73;0.73;;;15.00;99.90;;;;;;2089801;28;20600;-72
2021/07/28 04:16:44;;;;;;;1.30;1.20;;;15.00;99.90;;;;;;2090050;28;20180;-72
2021/07/28 04:17:44;;;;;;;1.20;1.10;;;15.00;99.90;;;;;;2098008;28;20179;-71
2021/07/28 04:18:45;;;;;;;2.00;1.80;;;15.10;99.90;;;;;;2098053;28;20176;-71
2021/07/28 04:19:49;;;;;;;1.43;1.03;;;15.10;99.90;;;;;;2081467;28;20270;-72
2021/07/28 04:20:49;;;;;;;1.70;0.88;;;15.10;99.90;;;;;;2090049;28;20192;-72
2021/07/28 04:21:50;;;;;;;1.47;1.37;;;15.10;99.90;;;;;;2098698;28;20178;-72
2021/07/28 04:22:51;;;;;;;3.30;1.10;;;15.10;99.90;;;;;;2098061;28;20237;-72
2021/07/28 04:23:51;;;;;;;1.43;1.27;;;15.00;99.90;;;;;;2089812;28;20249;-71
2021/07/28 04:24:52;;;;;;;0.60;0.60;;;15.00;99.90;;;;;;2098084;28;20749;-72
2021/07/28 04:25:53;;;;;;;1.67;1.07;;;15.10;99.90;;;;;;2089794;28;20226;-72
2021/07/28 04:26:53;;;;;;;2.53;1.53;;;15.10;99.90;;;;;;2089600;28;20548;-71
2021/07/28 04:27:54;;;;;;;1.97;1.03;;;15.10;99.90;;;;;;2097981;28;20266;-72
2021/07/28 04:28:55;;;;;;;1.10;0.90;;;15.10;99.90;;;;;;2098574;28;20206;-71
2021/07/28 04:29:56;;;;;;;1.33;1.23;;;15.10;99.90;;;;;;2097957;28;20198;-71
2021/07/28 04:30:56;;;;;;;1.33;1.23;;;15.10;99.90;;;;;;2097839;28;20287;-71
2021/07/28 04:31:57;;;;;;;2.10;1.80;;;15.10;99.90;;;;;;2098036;28;20164;-72
2021/07/28 04:32:58;;;;;;;2.07;1.70;;;15.10;99.90;;;;;;2089663;28;20180;-72
2021/07/28 04:33:59;;;;;;;1.63;1.00;;;15.10;99.90;;;;;;2100617;28;20745;-72
2021/07/28 04:34:59;;;;;;;1.47;1.37;;;15.10;99.90;;;;;;2098615;28;20168;-72
2021/07/28 04:36:00;;;;;;;1.03;1.03;;;15.00;99.90;;;;;;2089640;28;20187;-71
2021/07/28 04:37:01;;;;;;;1.53;1.43;;;15.00;99.90;;;;;;2089618;28;20173;-72
2021/07/28 04:38:01;;;;;;;0.67;0.67;;;15.00;99.90;;;;;;2097998;28;20198;-72
2021/07/28 04:39:03;;;;;;;0.80;0.80;;;15.00;99.90;;;;;;2098019;28;20654;-71
2021/07/28 04:40:04;;;;;;;0.95;0.95;;;15.00;99.90;;;;;;2097903;28;20560;-72
2021/07/28 04:41:05;;;;;;;1.38;0.95;;;15.00;99.90;;;;;;2089604;28;20207;-72
2021/07/28 04:42:06;;;;;;;1.33;1.23;;;15.00;99.90;;;;;;2097943;28;20175;-72
2021/07/28 04:43:06;;;;;;;1.27;1.17;;;15.00;99.90;;;;;;2098561;28;20172;-72
2021/07/28 04:44:07;;;;;;;3.03;1.43;;;14.90;99.90;;;;;;2097943;28;20172;-72
2021/07/28 04:45:08;;;;;;;1.40;1.30;;;14.90;99.90;;;;;;2097965;28;20180;-72
2021/07/28 04:46:09;;;;;;;1.52;1.42;;;14.90;99.90;;;;;;2097781;28;20750;-72
2021/07/28 04:47:09;;;;;;;1.33;1.10;;;14.90;99.90;;;;;;2097626;28;20190;-72
2021/07/28 04:48:10;;;;;;;0.90;0.90;;;14.90;99.90;;;;;;2098455;28;20211;-71
2021/07/28 04:49:11;;;;;;;1.27;1.00;;;14.90;99.90;;;;;;2089574;28;20296;-71
2021/07/28 04:50:12;;;;;;;2.33;1.47;;;14.90;99.90;;;;;;2089639;28;20275;-72
2021/07/28 04:51:12;;;;;;;2.80;1.73;;;14.90;99.90;;;;;;2098456;28;20241;-71
2021/07/28 04:52:13;;;;;;;1.03;0.93;;;14.80;99.90;;;;;;2098343;28;20409;-72
2021/07/28 04:53:14;;;;;;;0.70;0.70;;;14.80;99.90;;;;;;2098029;28;20171;-72
2021/07/28 04:54:15;;;;;;;1.60;1.50;;;14.80;99.90;;;;;;2097137;28;20187;-71
2021/07/28 04:55:15;;;;;;;1.40;1.30;;;14.70;99.90;;;;;;2098350;28;20184;-72
2021/07/28 04:56:16;;;;;;;2.30;1.40;;;14.70;99.90;;;;;;2097551;28;20183;-71
2021/07/28 04:57:17;;;;;;;0.50;0.50;;;14.70;99.90;;;;;;2097568;28;20630;-72
2021/07/28 04:58:17;;;;;;;1.87;1.77;;;14.70;99.90;;;;;;2097665;28;20191;-72
2021/07/28 04:59:18;;;;;;;0.90;0.90;;;14.60;99.90;;;;;;2098259;28;20245;-72
2021/07/28 05:00:19;;;;;;;3.27;1.30;;;14.50;99.90;;;;;;2098332;28;20172;-71
2021/07/28 05:01:20;;;;;;;2.50;2.17;;;14.50;99.90;;;;;;2097895;28;20271;-72
2021/07/28 05:02:23;;;;;;;1.80;1.70;;;14.50;99.90;;;;;;2097785;28;20179;-71
2021/07/28 05:03:23;;;;;;;1.55;1.45;;;14.50;99.90;;;;;;2089596;28;20234;-72
2021/07/28 05:04:24;;;;;;;0.90;0.90;;;14.50;99.90;;;;;;2089416;28;20671;-72
2021/07/28 05:05:25;;;;;;;3.23;1.10;;;14.40;99.90;;;;;;2097794;28;20292;-71
2021/07/28 05:06:26;;;;;;;2.33;1.73;;;14.30;99.90;;;;;;2098314;28;20187;-72
2021/07/28 05:07:26;;;;;;;0.70;0.70;;;14.20;99.90;;;;;;2097582;28;20172;-73
2021/07/28 05:08:27;;;;;;;1.00;1.00;;;14.20;99.90;;;;;;2089223;28;20184;-71
2021/07/28 05:09:28;;;;;;;1.73;1.63;;;14.20;99.90;;;;;;2089352;28;20212;-72
2021/07/28 05:10:28;;;;;;;1.40;0.80;;;14.20;99.90;;;;;;2097556;28;20184;-72
2021/07/28 05:11:29;;;;;;;1.47;1.37;;;14.30;99.90;;;;;;2097710;28;20182;-70
2021/07/28 05:12:29;;;;;;;1.40;1.30;;;14.30;99.90;;;;;;2097583;28;20201;-72
2021/07/28 05:13:30;;;;;;;1.20;1.00;;;14.30;99.90;;;;;;2097865;28;20176;-72
2021/07/28 05:14:31;;;;;;;0.80;0.80;;;14.30;99.90;;;;;;2097639;28;20631;-71
2021/07/28 05:15:32;;;;;;;1.07;0.97;;;14.30;99.90;;;;;;2089302;28;20196;-73
2021/07/28 05:16:33;;;;;;;3.88;1.48;;;14.30;99.90;;;;;;2089404;28;20180;-72
2021/07/28 05:17:33;;;;;;;1.50;1.40;;;14.30;99.90;;;;;;2089383;28;20180;-72
2021/07/28 05:18:34;;;;;;;1.40;1.30;;;14.20;99.90;;;;;;2097665;28;20172;-72
2021/07/28 05:19:35;;;;;;;2.53;1.97;;;14.10;99.90;;;;;;2098437;28;20203;-72
2021/07/28 05:20:35;;;;;;;0.80;0.80;;;14.10;99.90;;;;;;2098503;28;20180;-70
2021/07/28 05:21:37;;;;;;;1.57;1.47;;;14.10;99.90;;;;;;2097707;28;20733;-71